createdAt,value
2023-05-03T00:02:58.322Z,9.02
2023-05-03T00:08:02.748Z,11.68
2023-05-03T00:13:08.084Z,9.85
2023-05-03T00:18:12.082Z,9.80
2023-05-03T00:23:16.103Z,9.60
2023-05-03T00:28:21.579Z,14.98
2023-05-03T00:33:25.521Z,9.70
2023-05-03T00:38:29.608Z,9.13
2023-05-03T00:43:35.652Z,8.95
2023-05-03T00:48:39.626Z,13.43
2023-05-03T00:53:44.347Z,12.45
2023-05-03T00:58:49.815Z,12.93
2023-05-03T01:03:53.990Z,12.52
2023-05-03T01:09:03.328Z,13.80
2023-05-03T01:14:19.079Z,13.23
2023-05-03T01:19:30.756Z,16.45
2023-05-03T01:24:38.706Z,15.85
2023-05-03T01:29:44.927Z,15.45
2023-05-03T01:34:56.430Z,16.67
2023-05-03T01:40:05.308Z,16.95
2023-05-03T01:45:12.302Z,16.38
2023-05-03T01:50:16.365Z,14.20
2023-05-03T01:55:20.644Z,13.48
2023-05-03T02:00:26.325Z,14.57
2023-05-03T02:05:30.557Z,14.15
2023-05-03T02:10:34.553Z,15.48
2023-05-03T02:15:39.976Z,14.98
2023-05-03T02:20:46.755Z,13.52
2023-05-03T02:25:50.932Z,13.60
2023-05-03T02:30:56.334Z,13.82
2023-05-03T02:36:01.411Z,13.82
2023-05-03T02:41:05.295Z,11.07
2023-05-03T02:46:10.657Z,13.68
2023-05-03T02:51:14.658Z,12.07
2023-05-03T02:56:18.589Z,14.05
2023-05-03T03:01:24.358Z,10.90
2023-05-03T03:11:32.740Z,29.70
2023-05-03T03:16:38.201Z,16.17
2023-05-03T03:21:42.314Z,11.02
2023-05-03T03:26:46.486Z,19.67
2023-05-03T03:31:53.027Z,12.45
2023-05-03T03:36:57.623Z,11.45
2023-05-03T03:42:04.188Z,13.20
2023-05-03T03:47:10.410Z,11.75
2023-05-03T03:52:14.632Z,14.23
2023-05-03T03:57:18.830Z,11.27
2023-05-03T04:02:24.688Z,11.13
2023-05-03T04:07:29.420Z,13.65
2023-05-03T04:12:34.169Z,11.23
2023-05-03T04:17:39.815Z,12.68
2023-05-03T04:22:46.591Z,16.23
2023-05-03T04:27:53.799Z,15.68
2023-05-03T04:33:02.305Z,13.68
2023-05-03T04:38:10.290Z,11.23
2023-05-03T04:43:14.550Z,11.25
2023-05-03T04:48:23.666Z,15.05
2023-05-03T04:53:28.156Z,13.30
2023-05-03T04:58:46.441Z,12.88
2023-05-03T05:03:54.204Z,11.93
2023-05-03T05:09:03.068Z,11.43
2023-05-03T05:14:07.123Z,10.80
2023-05-03T05:19:13.820Z,11.35
2023-05-03T05:24:18.147Z,12.60
2023-05-03T05:29:22.317Z,12.93
2023-05-03T05:34:27.800Z,10.52
2023-05-03T05:39:32.343Z,12.93
2023-05-03T05:44:36.367Z,12.35
2023-05-03T05:49:41.988Z,14.13
2023-05-03T05:54:46.012Z,13.07
2023-05-03T05:59:52.694Z,11.48
2023-05-03T06:04:59.407Z,13.23
2023-05-03T06:10:04.671Z,15.07
2023-05-03T06:15:09.906Z,14.80
2023-05-03T06:20:17.078Z,14.88
2023-05-03T06:25:21.397Z,15.57
2023-05-03T06:30:28.651Z,16.98
2023-05-03T06:35:39.498Z,17.80
2023-05-03T06:40:43.598Z,12.73
2023-05-03T06:45:48.376Z,16.23
2023-05-03T06:50:53.978Z,12.65
2023-05-03T06:55:57.913Z,17.10
2023-05-03T07:01:03.490Z,12.18
2023-05-03T07:06:08.968Z,12.23
2023-05-03T07:11:12.968Z,16.02
2023-05-03T07:16:16.975Z,12.10
2023-05-03T07:21:22.381Z,12.95
2023-05-03T07:26:27.104Z,15.18
2023-05-03T07:31:31.552Z,14.27
2023-05-03T07:36:37.354Z,12.88
2023-05-03T07:41:41.252Z,18.95
2023-05-03T07:46:45.197Z,14.38
2023-05-03T07:51:50.504Z,16.65
2023-05-03T07:56:55.722Z,16.02
2023-05-03T08:02:01.765Z,17.05
2023-05-03T08:07:08.378Z,15.18
2023-05-03T08:12:12.241Z,11.63
2023-05-03T08:17:16.204Z,14.85
2023-05-03T08:22:21.492Z,13.77
2023-05-03T08:27:28.604Z,13.32
2023-05-03T08:32:32.724Z,14.55
2023-05-03T08:37:41.820Z,15.25
2023-05-03T08:42:47.125Z,13.65
2023-05-03T08:47:55.591Z,16.30
2023-05-03T08:53:01.515Z,15.10
2023-05-03T09:03:14.815Z,15.25
2023-05-03T09:08:22.827Z,16.88
2023-05-03T09:13:32.141Z,20.15
2023-05-03T09:18:36.140Z,12.95
2023-05-03T09:23:41.443Z,17.15
2023-05-03T09:28:45.475Z,15.38
2023-05-03T09:33:49.679Z,13.30
2023-05-03T09:38:56.121Z,15.82
2023-05-03T09:44:03.066Z,11.85
2023-05-03T09:49:07.349Z,10.43
2023-05-03T09:54:16.846Z,10.20
2023-05-03T09:59:21.067Z,13.13
2023-05-03T10:04:26.934Z,12.48
2023-05-03T10:09:39.949Z,11.27
2023-05-03T10:14:45.782Z,10.43
2023-05-03T10:19:54.131Z,9.32
2023-05-03T10:25:13.984Z,10.23
2023-05-03T10:30:34.805Z,9.30
2023-05-03T10:35:41.959Z,7.95
2023-05-03T10:40:47.317Z,9.70
2023-05-03T10:45:52.765Z,8.27
2023-05-03T10:50:57.860Z,8.48
2023-05-03T10:56:06.037Z,11.73
2023-05-03T11:01:12.168Z,6.03
2023-05-03T11:06:29.580Z,6.65
2023-05-03T11:11:36.784Z,6.63
2023-05-03T11:16:48.266Z,10.80
2023-05-03T11:21:52.818Z,5.20
2023-05-03T11:26:58.482Z,6.18
2023-05-03T11:32:02.909Z,6.55
2023-05-03T11:37:11.018Z,6.43
2023-05-03T11:42:16.777Z,5.35
2023-05-03T11:47:21.640Z,6.75
2023-05-03T11:52:27.416Z,5.00
2023-05-03T11:57:33.577Z,7.25
2023-05-03T12:02:38.018Z,6.47
2023-05-03T12:07:42.862Z,4.63
2023-05-03T12:12:58.043Z,8.10
2023-05-03T12:18:09.177Z,4.35
2023-05-03T12:23:15.774Z,5.05
2023-05-03T12:28:22.551Z,5.70
2023-05-03T12:33:28.529Z,5.72
2023-05-03T12:38:35.974Z,5.78
2023-05-03T12:43:43.792Z,4.22
2023-05-03T12:48:48.316Z,5.72
2023-05-03T12:53:55.163Z,6.95
2023-05-03T12:59:31.665Z,6.03
2023-05-03T13:10:12.176Z,9.35
2023-05-03T13:14:57.345Z,8.15
2023-05-03T13:20:01.393Z,7.13
2023-05-03T13:25:07.245Z,6.75
2023-05-03T13:30:14.553Z,9.57
2023-05-03T13:35:18.926Z,8.18
2023-05-03T13:40:24.640Z,6.18
2023-05-03T13:45:30.319Z,6.68
2023-05-03T13:50:34.332Z,7.32
2023-05-03T13:55:38.455Z,7.57
2023-05-03T14:00:43.958Z,9.65
2023-05-03T14:05:48.293Z,6.95
2023-05-03T14:10:52.331Z,7.97
2023-05-03T14:15:57.955Z,9.48
2023-05-03T14:21:02.127Z,12.52
2023-05-03T14:26:06.548Z,9.52
2023-05-03T14:31:13.299Z,10.07
2023-05-03T14:36:17.322Z,13.15
2023-05-03T14:41:21.858Z,9.65
2023-05-03T14:46:27.258Z,9.45
2023-05-03T14:51:32.475Z,12.07
2023-05-03T14:56:36.505Z,12.03
2023-05-03T15:01:41.919Z,9.27
2023-05-03T15:06:46.177Z,11.88
2023-05-03T15:11:50.399Z,11.88
2023-05-03T15:16:55.757Z,13.27
2023-05-03T15:22:00.115Z,14.82
2023-05-03T15:27:04.709Z,15.60
2023-05-03T15:32:10.040Z,11.05
2023-05-03T15:37:14.120Z,9.82
2023-05-03T15:42:17.982Z,16.30
2023-05-03T15:47:23.909Z,14.10
2023-05-03T15:52:28.163Z,13.57
2023-05-03T15:57:32.474Z,13.25
2023-05-03T16:02:38.229Z,16.50
2023-05-03T16:12:46.110Z,17.65
2023-05-03T16:17:54.340Z,15.38
2023-05-03T16:22:58.545Z,14.43
2023-05-03T16:28:03.146Z,13.02
2023-05-03T16:33:08.790Z,14.50
2023-05-03T16:38:12.798Z,15.57
2023-05-03T16:43:18.494Z,16.70
2023-05-03T16:48:24.075Z,12.95
2023-05-03T16:53:28.096Z,14.35
2023-05-03T16:58:32.016Z,13.63
2023-05-03T17:03:37.509Z,13.52
2023-05-03T17:08:41.905Z,15.18
2023-05-03T17:13:47.218Z,11.55
2023-05-03T17:18:52.905Z,13.10
2023-05-03T17:23:56.979Z,14.07
2023-05-03T17:29:01.120Z,16.52
2023-05-03T17:34:06.709Z,14.63
2023-05-03T17:39:10.741Z,16.52
2023-05-03T17:44:15.344Z,13.88
2023-05-03T17:49:20.628Z,12.25
2023-05-03T17:54:25.624Z,11.65
2023-05-03T17:59:29.612Z,12.70
2023-05-03T18:04:35.023Z,15.30
2023-05-03T18:09:40.068Z,17.08
2023-05-03T18:14:43.968Z,20.67
2023-05-03T18:19:49.266Z,19.05
2023-05-03T18:24:55.708Z,16.55
2023-05-03T18:29:59.828Z,16.40
2023-05-03T18:35:06.175Z,19.40
2023-05-03T18:40:10.825Z,15.07
2023-05-03T18:45:17.494Z,19.38
2023-05-03T18:50:23.125Z,18.35
2023-05-03T18:55:27.163Z,17.25
2023-05-03T19:00:31.659Z,20.58
2023-05-03T19:05:37.388Z,20.35
2023-05-03T19:10:41.572Z,18.08
2023-05-03T19:15:45.731Z,19.27
2023-05-03T19:20:51.526Z,18.83
2023-05-03T19:25:56.680Z,18.30
2023-05-03T19:31:04.327Z,18.47
2023-05-03T19:36:13.517Z,19.88
2023-05-03T19:41:17.438Z,19.88
2023-05-03T19:46:21.464Z,20.95
2023-05-03T19:51:27.914Z,20.30
2023-05-03T19:56:31.851Z,23.45
2023-05-03T20:01:35.840Z,22.52
2023-05-03T20:06:41.094Z,24.38
2023-05-03T20:11:45.034Z,16.65
2023-05-03T20:16:49.134Z,16.20
2023-05-03T20:21:54.402Z,20.30
2023-05-03T20:26:58.411Z,16.50
2023-05-03T20:32:02.750Z,18.02
2023-05-03T20:37:08.410Z,16.38
2023-05-03T20:47:16.552Z,18.10
2023-05-03T20:52:22.015Z,17.15
2023-05-03T20:57:26.017Z,16.35
2023-05-03T21:02:30.166Z,18.30
2023-05-03T21:07:38.662Z,16.08
2023-05-03T21:12:42.743Z,27.08
2023-05-03T21:17:47.346Z,32.80
2023-05-03T21:22:53.740Z,32.25
2023-05-03T21:27:57.784Z,28.83
2023-05-03T21:33:01.951Z,26.98
2023-05-03T21:38:07.850Z,28.73
2023-05-03T21:48:15.419Z,24.05
2023-05-03T21:53:20.849Z,24.02
2023-05-03T21:58:24.741Z,25.17
2023-05-03T22:03:28.722Z,37.75
2023-05-03T22:08:34.396Z,21.02
2023-05-03T22:13:50.325Z,26.65
2023-05-03T22:19:02.384Z,21.50
2023-05-03T22:24:08.844Z,23.05
2023-05-03T22:29:13.532Z,24.52
2023-05-03T22:34:17.488Z,22.88
2023-05-03T22:39:22.756Z,25.50
2023-05-03T22:44:27.086Z,19.20
2023-05-03T22:49:31.059Z,19.35
2023-05-03T22:54:36.326Z,27.52
2023-05-03T22:59:40.260Z,33.15
2023-05-03T23:04:44.550Z,33.00
2023-05-03T23:09:49.833Z,34.72
2023-05-03T23:14:53.772Z,24.58
2023-05-03T23:19:57.675Z,36.38
2023-05-03T23:25:03.703Z,32.35
2023-05-03T23:30:09.101Z,34.95
2023-05-03T23:35:13.635Z,30.40
2023-05-03T23:40:19.326Z,30.23
2023-05-03T23:45:23.255Z,28.23
2023-05-03T23:50:27.254Z,27.73
2023-05-03T23:55:32.541Z,29.67
